• Join FlightAware (Why Join?)
  • Login
  • US Flag GB Flag 
19:31 EDT


 

Airport Tracker/Info


-or-


 

Live Flight TrackerFlight Track Log ✈ N62773 ✈ 27-Jun-2013 ✈ KBKL - KTVC

Flight Track Log - Related Links

Times and Time Zones

All times are in EDT time to prevent confusion due to time zone crossing. See the N62773 flight status page for this flight to view local times or setup timezone preferences in your user account.

Time Position Orientation Groundspeed Altitude Reporting Facility
EDT Latitude Longitude Course Direction KTS MPH feet Rate Location/Type
17:24 41.5256 -81.6619 North 97 112 1,100  Level Cleveland Center
17:25 41.5442 -81.6594 North 111 128 1,400 120 Climbing Cleveland Center
17:26 41.5314 -81.6900 241° Southwest 130 150 1,300 -180 Descending Cleveland Center
17:27 41.5144 -81.7200 233° Southwest 112 129 1,100 -300 Descending Cleveland Center
17:28 41.5042 -81.7144 158° South 94 108 800  Descending Cleveland Center
17:30 41.5109 -81.8047 276° West  Level FlightAware Approximate
17:37 41.5375 -82.1609 275° West  Level FlightAware Approximate
17:38 41.5414 -82.2186 275° West  Level FlightAware Approximate
17:39 41.5453 -82.2763 275° West  Level FlightAware Approximate
17:40 41.5491 -82.3340 275° West  Level FlightAware Approximate
17:41 41.5530 -82.3917 275° West  Level FlightAware Approximate
17:41 41.5506 -81.6569 359° North 103 119 1,500  Level Cleveland Center
17:42 41.5568 -82.4495 275° West  Level FlightAware Approximate
17:42 41.5772 -81.6878 319° Northwest 118 136 2,100  Level Cleveland Center
17:43 41.5605 -82.5072 275° West  Level FlightAware Approximate
17:44 41.5643 -82.5650 275° West  Level FlightAware Approximate
17:44 41.5521 -81.7690 248° West  Level FlightAware Approximate
17:44 41.6244 -81.7608 248° West 123 142 3,300  Level Cleveland Center
17:45 41.5680 -82.6227 275° West  Level FlightAware Approximate
17:45 41.6450 -81.7975 307° West 114 131 3,900  Level Cleveland Center
17:46 41.5717 -82.6805 275° West  Level FlightAware Approximate
17:46 41.6528 -81.8392 284° West 130 150 4,400  Level Cleveland Center
17:47 41.6525 -81.8753 269° West 129 148 4,800 420 Climbing Cleveland Center
17:48 41.6519 -81.9253 269° West 129 148 5,200 480 Climbing Cleveland Center
17:49 41.6556 -81.9728 276° West 121 139 5,800 300 Climbing Cleveland Center
17:50 41.6569 -82.0200 272° West 130 150 5,900  Climbing Cleveland Center
17:51 41.6583 -82.0728 272° West 145 167 5,900  Level Cleveland Center
17:52 41.6597 -82.1228 272° West 136 157 6,000  Climbing Cleveland Center
17:53 41.6569 -82.1728 266° West 138 159 6,000  Level Cleveland Center
17:54 41.6603 -82.2369 274° West 141 162 6,000  Level Cleveland Center
17:55 41.6575 -82.2894 266° West 146 168 6,000  Level Cleveland Center
17:56 41.6589 -82.3425 272° West 160 184 6,000  Level Cleveland Center
17:57 41.6578 -82.4064 269° West 158 182 6,000  Level Cleveland Center
17:58 41.6611 -82.4647 274° West 160 184 6,000  Level Cleveland Center
17:59 41.6600 -82.5286 269° West 157 181 6,000  Level Cleveland Center
18:00 41.6464 -82.5839 252° West 157 181 6,000  Level Cleveland Center
18:01 41.6392 -82.6419 261° West 157 181 6,000  Level Cleveland Center
18:02 41.6278 -82.6972 255° West 156 180 6,000  Level Cleveland Center
18:03 41.6142 -82.7522 252° West 155 178 6,000  Level Cleveland Center
18:05 41.6272 -82.8415 281° West  Level FlightAware Approximate
18:12 41.6273 -83.3405 269° West  Level FlightAware Approximate
18:13 41.6261 -83.4114 269° West  Level FlightAware Approximate
18:14 41.6250 -83.4823 269° West  Level FlightAware Approximate
18:15 41.6238 -83.5532 269° West  Level FlightAware Approximate
18:16 41.6226 -83.6241 269° West  Level FlightAware Approximate
18:17 41.6213 -83.6949 269° West  Level FlightAware Approximate
18:18 41.6200 -83.7658 269° West  Level FlightAware Approximate
18:19 41.6186 -83.8367 269° West  Level FlightAware Approximate
18:20 41.6172 -83.9076 268° West  Level FlightAware Approximate
18:21 41.6196 -83.9783 275° West  Level FlightAware Approximate
18:22 41.6717 -83.9885 352° North  Level Estimated
18:23 41.7239 -83.9986 352° North  Level Estimated
18:24 41.7761 -84.0088 352° North  Level Estimated
18:25 41.8283 -84.0189 352° North  Level Estimated
18:26 41.8804 -84.0291 352° North  Level Estimated
18:27 41.9326 -84.0393 352° North  Level Estimated
18:28 41.9848 -84.0496 352° North  Level Estimated
18:29 42.0369 -84.0598 352° North  Level Estimated
18:30 42.0891 -84.0701 352° North  Level Estimated
18:31 42.1413 -84.0804 352° North  Level Estimated
18:32 42.1934 -84.0906 352° North  Level Estimated
18:33 42.2456 -84.1010 352° North  Level Estimated
18:34 42.2977 -84.1113 352° North  Level Estimated
18:35 42.3499 -84.1216 352° North  Level Estimated
18:36 42.4021 -84.1320 352° North  Level Estimated
18:37 42.4542 -84.1424 352° North  Level Estimated
18:38 42.5064 -84.1528 352° North  Level Estimated
18:39 42.5586 -84.1632 352° North  Level Estimated
18:40 42.6107 -84.1736 352° North  Level Estimated
18:41 42.6629 -84.1841 352° North  Level Estimated
18:42 42.7150 -84.1945 352° North  Level Estimated
18:43 42.7672 -84.2050 352° North  Level Estimated
18:44 42.8193 -84.2155 352° North  Level Estimated
18:45 42.8715 -84.2260 352° North  Level Estimated
18:46 42.9236 -84.2366 352° North  Level Estimated
18:47 42.9758 -84.2471 352° North  Level Estimated
18:48 43.0279 -84.2577 352° North  Level Estimated
18:49 43.0801 -84.2683 352° North  Level Estimated
18:50 43.1322 -84.2789 352° North  Level Estimated
18:51 43.1844 -84.2895 352° North  Level Estimated
18:51 42.0514 -84.3972 352° North 131 151 6,000  Level Chicago Center
18:52 43.2365 -84.3002 352° North  Level Estimated
18:52 42.0875 -84.4128 342° North 134 154 6,000  Level Chicago Center
18:53 43.2886 -84.3108 352° North  Level Estimated
18:53 42.1239 -84.4294 341° North 138 159 6,000  Level Chicago Center
18:54 43.3406 -84.3215 352° North  Level Estimated
18:54 42.1669 -84.4469 343° North 136 157 6,000  Level Chicago Center
18:55 43.3927 -84.3322 352° North  Level Estimated
18:55 42.2036 -84.4619 343° North 137 158 6,000  Level Chicago Center
18:56 43.4447 -84.3429 352° North  Level Estimated
18:56 42.2350 -84.4933 323° Northwest 141 162 6,000  Level Chicago Center
18:57 42.2653 -84.5275 320° Northwest 142 163 6,000  Level Chicago Center
18:58 42.3014 -84.5503 335° Northwest 143 165 6,000 -60 Level Chicago Center
18:59 42.3333 -84.5786 327° Northwest 140 161 5,900  Descending Chicago Center
19:00 42.3692 -84.6167 322° Northwest 138 159 6,000  Climbing Chicago Center
19:01 42.4025 -84.6450 328° Northwest 141 162 6,000 -60 Level Chicago Center
19:02 42.4372 -84.6728 329° Northwest 143 165 5,900  Descending Chicago Center
19:03 42.4681 -84.7033 324° Northwest 140 161 6,100  Climbing Chicago Center
19:04 42.5028 -84.7322 328° Northwest 145 167 6,000 -60 Descending Chicago Center
19:05 42.5375 -84.7633 327° Northwest 149 171 6,000  Level Chicago Center
19:06 42.5706 -84.7933 326° Northwest 145 167 6,000  Level Chicago Center
19:07 42.6039 -84.8392 315° West 151 174 6,000  Level Chicago Center
19:08 42.6103 -84.8914 279° West 144 166 6,000  Level Chicago Center
19:09 42.6197 -84.9422 284° West 140 161 6,000  Level Chicago Center
19:10 42.6481 -84.9778 317° Northwest 142 163 6,000  Level Chicago Center
19:11 42.6850 -84.9983 338° Northwest 143 165 6,000  Level Chicago Center
19:12 42.7131 -85.0356 316° Northwest 141 162 6,000  Level Chicago Center
19:13 42.7394 -85.0756 312° West 141 162 6,000  Level Chicago Center
19:15 42.7700 -85.1231 311° West 141 162 6,000  Level Chicago Center
19:16 42.7944 -85.1639 309° West 140 161 6,000  Level Chicago Center
19:17 42.8572 -85.2111 331° Northwest 142 163 6,000  Level Minneapolis Center
19:19 42.8981 -85.2414 331° Northwest 141 162 6,000  Level Minneapolis Center
19:20 42.9336 -85.2647 334° Northwest 141 162 6,000 240 Level Minneapolis Center
19:21 42.9678 -85.2900 332° Northwest 141 162 6,500 480 Climbing Minneapolis Center
19:22 42.9975 -85.3114 332° Northwest 134 154 7,000 240 Climbing Minneapolis Center
19:23 43.0281 -85.3325 333° Northwest 127 146 7,000  Level Minneapolis Center
19:24 43.0631 -85.3581 332° Northwest 135 155 7,000  Level Minneapolis Center
19:25 43.1067 -85.3872 334° Northwest 144 166 7,000  Level Minneapolis Center
19:26 43.1428 -85.4125 333° Northwest 145 167 7,000  Level Chicago Center
19:27 43.1786 -85.4369 334° Northwest 145 167 7,000  Level Chicago Center
19:28 43.2222 -85.4619 337° Northwest 146 168 7,000  Level Chicago Center
19:29 43.2636 -85.4606 North 149 171 7,000  Level Chicago Center
19:30 43.3050 -85.4636 357° North 151 174 7,000  Level Chicago Center
19:31 43.3467 -85.4692 354° North 151 174 7,000  Level Chicago Center
19:32 43.3881 -85.4700 359° North 151 174 7,000  Level Chicago Center
19:33 43.4292 -85.4731 357° North 149 171 7,000  Level Chicago Center
19:34 43.4786 -85.4783 356° North 150 173 7,000  Level Chicago Center
19:35 43.5208 -85.4808 358° North 152 175 7,000  Level Chicago Center
19:36 43.5614 -85.4842 357° North 149 171 7,100  Climbing Chicago Center
19:37 43.6042 -85.4875 357° North 153 176 7,000 -60 Descending Chicago Center
19:38 43.6478 -85.4917 356° North 156 180 7,000  Level Chicago Center
19:39 43.6886 -85.4944 357° North 152 175 7,000  Level Minneapolis Center
19:40 43.7311 -85.4994 355° North 153 176 7,000  Level Minneapolis Center
19:41 43.7806 -85.5028 357° North 151 174 7,000  Level Minneapolis Center
19:42 43.8222 -85.5072 356° North 150 173 7,000  Level Minneapolis Center
19:43 43.8642 -85.5094 358° North 152 175 7,000  Level Minneapolis Center
19:44 43.9050 -85.5147 355° North 150 173 7,000  Level Minneapolis Center
19:45 43.9458 -85.5164 358° North 148 170 7,000  Level Minneapolis Center
19:46 43.9939 -85.5289 349° North 147 169 7,000 -240 Level Minneapolis Center
19:47 44.0344 -85.5478 341° North 151 174 6,600 -480 Descending Minneapolis Center
19:49 44.0800 -85.5681 342° North 158 182 6,100 -480 Descending Minneapolis Center
19:50 44.1217 -85.5856 343° North 158 182 5,700 -360 Descending Minneapolis Center
19:51 44.1617 -85.6022 343° North 152 175 5,400 -420 Descending Minneapolis Center
19:52 44.2033 -85.6208 342° North 156 180 4,900 -480 Descending Minneapolis Center
19:53 44.2456 -85.6408 341° North 160 184 4,500 -480 Descending Minneapolis Center
19:54 44.2958 -85.6642 342° North 160 184 4,000 -240 Descending Minneapolis Center
19:55 44.3322 -85.6808 342° North 146 168 4,100  Climbing Minneapolis Center
19:56 44.3669 -85.6964 342° North 134 154 4,100 -60 Level Minneapolis Center
19:57 44.4011 -85.7119 342° North 131 151 4,000 -60 Descending Minneapolis Center
19:58 44.4375 -85.7269 344° North 133 153 4,000  Level Minneapolis Center
19:59 44.4719 -85.7419 343° North 133 153 4,100  Climbing Minneapolis Center
20:00 44.5128 -85.7603 342° North 129 148 4,100  Level Minneapolis Center
20:01 44.5472 -85.7747 343° North 130 150 4,100 -300 Level Minneapolis Center
20:02 44.5833 -85.7914 342° North 133 153 3,500 -540 Descending Minneapolis Center
20:03 44.6211 -85.8100 341° North 139 160 3,000 -480 Descending Minneapolis Center
20:05 44.6464 -85.7553 57° Northeast  Level FlightAware Approximate
20:12 44.7333 -85.5667 20° North  Level FlightAware Approximate